sensor_id;sensor_type;location;lat;lon;timestamp;temperature;humidity
19522;DHT22;9905;52.126;5.596;2024-02-15T00:02:07;12.10;99.90
19522;DHT22;9905;52.126;5.596;2024-02-15T00:04:34;12.10;99.90
19522;DHT22;9905;52.126;5.596;2024-02-15T00:07:03;12.10;99.90
19522;DHT22;9905;52.126;5.596;2024-02-15T00:09:31;12.20;99.90
19522;DHT22;9905;52.126;5.596;2024-02-15T00:11:58;12.10;99.90
19522;DHT22;9905;52.126;5.596;2024-02-15T00:14:25;12.20;99.90
19522;DHT22;9905;52.126;5.596;2024-02-15T00:16:52;12.10;99.90
19522;DHT22;9905;52.126;5.596;2024-02-15T00:19:18;12.20;99.90
19522;DHT22;9905;52.126;5.596;2024-02-15T00:21:47;12.10;99.90
19522;DHT22;9905;52.126;5.596;2024-02-15T00:24:15;12.10;99.90
19522;DHT22;9905;52.126;5.596;2024-02-15T00:26:42;12.10;99.90
19522;DHT22;9905;52.126;5.596;2024-02-15T00:29:09;12.10;99.90
19522;DHT22;9905;52.126;5.596;2024-02-15T00:31:36;12.10;99.90
19522;DHT22;9905;52.126;5.596;2024-02-15T00:34:03;12.10;99.90
19522;DHT22;9905;52.126;5.596;2024-02-15T00:36:30;12.10;99.90
19522;DHT22;9905;52.126;5.596;2024-02-15T00:38:57;12.10;99.90
19522;DHT22;9905;52.126;5.596;2024-02-15T00:41:26;12.10;99.90
19522;DHT22;9905;52.126;5.596;2024-02-15T00:43:53;12.10;99.90
19522;DHT22;9905;52.126;5.596;2024-02-15T00:46:20;12.10;99.90
19522;DHT22;9905;52.126;5.596;2024-02-15T00:48:46;12.20;99.90
19522;DHT22;9905;52.126;5.596;2024-02-15T00:51:13;12.10;99.90
19522;DHT22;9905;52.126;5.596;2024-02-15T00:53:40;12.10;99.90
19522;DHT22;9905;52.126;5.596;2024-02-15T00:56:07;12.10;99.90
19522;DHT22;9905;52.126;5.596;2024-02-15T00:58:35;12.10;99.90
19522;DHT22;9905;52.126;5.596;2024-02-15T01:01:02;12.10;99.90
19522;DHT22;9905;52.126;5.596;2024-02-15T01:03:28;12.10;99.90
19522;DHT22;9905;52.126;5.596;2024-02-15T01:05:56;12.10;99.90
19522;DHT22;9905;52.126;5.596;2024-02-15T01:08:23;12.10;99.90
19522;DHT22;9905;52.126;5.596;2024-02-15T01:10:49;12.10;99.90
19522;DHT22;9905;52.126;5.596;2024-02-15T01:13:18;12.10;99.90
19522;DHT22;9905;52.126;5.596;2024-02-15T01:15:46;12.10;99.90
19522;DHT22;9905;52.126;5.596;2024-02-15T01:18:13;12.10;99.90
19522;DHT22;9905;52.126;5.596;2024-02-15T01:20:40;12.10;99.90
19522;DHT22;9905;52.126;5.596;2024-02-15T01:23:07;12.10;99.90
19522;DHT22;9905;52.126;5.596;2024-02-15T01:25:34;12.10;99.90
19522;DHT22;9905;52.126;5.596;2024-02-15T01:28:01;12.10;99.90
19522;DHT22;9905;52.126;5.596;2024-02-15T01:30:28;12.10;99.90
19522;DHT22;9905;52.126;5.596;2024-02-15T01:32:56;12.10;99.90
19522;DHT22;9905;52.126;5.596;2024-02-15T01:35:23;12.10;99.90
19522;DHT22;9905;52.126;5.596;2024-02-15T01:37:49;12.10;99.90
19522;DHT22;9905;52.126;5.596;2024-02-15T01:40:16;12.10;99.90
19522;DHT22;9905;52.126;5.596;2024-02-15T01:42:45;12.10;99.90
19522;DHT22;9905;52.126;5.596;2024-02-15T01:45:11;12.10;99.90
19522;DHT22;9905;52.126;5.596;2024-02-15T01:47:39;12.10;99.90
19522;DHT22;9905;52.126;5.596;2024-02-15T01:50:08;12.10;99.90
19522;DHT22;9905;52.126;5.596;2024-02-15T01:52:35;12.10;99.90
19522;DHT22;9905;52.126;5.596;2024-02-15T01:55:05;12.10;99.90
19522;DHT22;9905;52.126;5.596;2024-02-15T01:57:34;12.10;99.90
19522;DHT22;9905;52.126;5.596;2024-02-15T02:00:04;12.20;99.90
19522;DHT22;9905;52.126;5.596;2024-02-15T02:02:33;12.20;99.90
19522;DHT22;9905;52.126;5.596;2024-02-15T02:05:00;12.20;99.90
19522;DHT22;9905;52.126;5.596;2024-02-15T02:07:29;12.20;99.90
19522;DHT22;9905;52.126;5.596;2024-02-15T02:09:56;12.20;99.90
19522;DHT22;9905;52.126;5.596;2024-02-15T02:12:23;12.20;99.90
19522;DHT22;9905;52.126;5.596;2024-02-15T02:14:50;12.10;99.90
19522;DHT22;9905;52.126;5.596;2024-02-15T02:17:17;12.10;99.90
19522;DHT22;9905;52.126;5.596;2024-02-15T02:19:45;12.20;99.90
19522;DHT22;9905;52.126;5.596;2024-02-15T02:22:14;12.20;99.90
19522;DHT22;9905;52.126;5.596;2024-02-15T02:24:54;12.20;99.90
19522;DHT22;9905;52.126;5.596;2024-02-15T02:27:21;12.20;99.90
19522;DHT22;9905;52.126;5.596;2024-02-15T02:29:48;12.20;99.90
19522;DHT22;9905;52.126;5.596;2024-02-15T02:32:14;12.10;99.90
19522;DHT22;9905;52.126;5.596;2024-02-15T02:34:41;12.10;99.90
19522;DHT22;9905;52.126;5.596;2024-02-15T02:37:09;12.10;99.90
19522;DHT22;9905;52.126;5.596;2024-02-15T02:39:39;12.10;99.90
19522;DHT22;9905;52.126;5.596;2024-02-15T02:42:07;12.10;99.90
19522;DHT22;9905;52.126;5.596;2024-02-15T02:44:33;12.10;99.90
19522;DHT22;9905;52.126;5.596;2024-02-15T02:47:00;12.10;99.90
19522;DHT22;9905;52.126;5.596;2024-02-15T02:49:27;12.10;99.90
19522;DHT22;9905;52.126;5.596;2024-02-15T02:51:54;12.10;99.90
19522;DHT22;9905;52.126;5.596;2024-02-15T02:54:21;12.10;99.90
19522;DHT22;9905;52.126;5.596;2024-02-15T02:56:47;12.10;99.90
19522;DHT22;9905;52.126;5.596;2024-02-15T02:59:16;12.10;99.90
19522;DHT22;9905;52.126;5.596;2024-02-15T03:01:43;12.10;99.90
19522;DHT22;9905;52.126;5.596;2024-02-15T03:04:08;12.10;99.90
19522;DHT22;9905;52.126;5.596;2024-02-15T03:06:37;12.10;99.90
19522;DHT22;9905;52.126;5.596;2024-02-15T03:09:04;12.00;99.90
19522;DHT22;9905;52.126;5.596;2024-02-15T03:11:32;12.10;99.90
19522;DHT22;9905;52.126;5.596;2024-02-15T03:14:00;12.10;99.90
19522;DHT22;9905;52.126;5.596;2024-02-15T03:16:31;12.00;99.90
19522;DHT22;9905;52.126;5.596;2024-02-15T03:18:57;12.00;99.90
19522;DHT22;9905;52.126;5.596;2024-02-15T03:21:26;12.00;99.90
19522;DHT22;9905;52.126;5.596;2024-02-15T03:23:53;12.00;99.90
19522;DHT22;9905;52.126;5.596;2024-02-15T03:26:29;12.00;99.90
19522;DHT22;9905;52.126;5.596;2024-02-15T03:28:56;12.00;99.90
19522;DHT22;9905;52.126;5.596;2024-02-15T03:31:23;12.00;99.90
19522;DHT22;9905;52.126;5.596;2024-02-15T03:33:51;12.10;99.90
19522;DHT22;9905;52.126;5.596;2024-02-15T03:36:19;12.10;99.90
19522;DHT22;9905;52.126;5.596;2024-02-15T03:38:47;12.00;99.90
19522;DHT22;9905;52.126;5.596;2024-02-15T03:41:14;12.00;99.90
19522;DHT22;9905;52.126;5.596;2024-02-15T03:43:41;12.00;99.90
19522;DHT22;9905;52.126;5.596;2024-02-15T03:46:08;12.00;99.90
19522;DHT22;9905;52.126;5.596;2024-02-15T03:48:38;12.00;99.90
19522;DHT22;9905;52.126;5.596;2024-02-15T03:51:06;11.90;99.90
19522;DHT22;9905;52.126;5.596;2024-02-15T03:53:33;12.00;99.90
19522;DHT22;9905;52.126;5.596;2024-02-15T03:56:03;11.90;99.90
19522;DHT22;9905;52.126;5.596;2024-02-15T03:58:30;11.90;99.90
19522;DHT22;9905;52.126;5.596;2024-02-15T04:00:58;11.90;99.90
19522;DHT22;9905;52.126;5.596;2024-02-15T04:03:25;11.90;99.90
19522;DHT22;9905;52.126;5.596;2024-02-15T04:05:52;11.90;99.90
19522;DHT22;9905;52.126;5.596;2024-02-15T04:08:21;11.90;99.90
19522;DHT22;9905;52.126;5.596;2024-02-15T04:10:48;11.90;99.90
19522;DHT22;9905;52.126;5.596;2024-02-15T04:13:16;11.90;99.90
19522;DHT22;9905;52.126;5.596;2024-02-15T04:15:43;11.80;99.90
19522;DHT22;9905;52.126;5.596;2024-02-15T04:18:12;11.90;99.90
19522;DHT22;9905;52.126;5.596;2024-02-15T04:20:39;11.90;99.90
19522;DHT22;9905;52.126;5.596;2024-02-15T04:23:10;11.90;99.90
19522;DHT22;9905;52.126;5.596;2024-02-15T04:25:38;11.90;99.90
19522;DHT22;9905;52.126;5.596;2024-02-15T04:28:06;11.90;99.90
19522;DHT22;9905;52.126;5.596;2024-02-15T04:30:34;11.90;99.90
19522;DHT22;9905;52.126;5.596;2024-02-15T04:33:04;11.80;99.90
19522;DHT22;9905;52.126;5.596;2024-02-15T04:35:30;11.80;99.90
19522;DHT22;9905;52.126;5.596;2024-02-15T04:37:57;11.80;99.90
19522;DHT22;9905;52.126;5.596;2024-02-15T04:40:24;11.80;99.90
19522;DHT22;9905;52.126;5.596;2024-02-15T04:42:52;11.80;99.90
19522;DHT22;9905;52.126;5.596;2024-02-15T04:45:19;11.90;99.90
19522;DHT22;9905;52.126;5.596;2024-02-15T04:47:48;11.80;99.90
19522;DHT22;9905;52.126;5.596;2024-02-15T04:50:17;11.80;99.90
19522;DHT22;9905;52.126;5.596;2024-02-15T04:52:44;11.80;99.90
19522;DHT22;9905;52.126;5.596;2024-02-15T04:55:15;11.80;99.90
19522;DHT22;9905;52.126;5.596;2024-02-15T04:57:43;11.80;99.90
19522;DHT22;9905;52.126;5.596;2024-02-15T05:00:13;11.80;99.90
19522;DHT22;9905;52.126;5.596;2024-02-15T05:02:40;11.80;99.90
19522;DHT22;9905;52.126;5.596;2024-02-15T05:05:09;11.80;99.90
19522;DHT22;9905;52.126;5.596;2024-02-15T05:07:38;11.80;99.90
19522;DHT22;9905;52.126;5.596;2024-02-15T05:10:06;11.80;99.90
19522;DHT22;9905;52.126;5.596;2024-02-15T05:12:34;11.80;99.90
19522;DHT22;9905;52.126;5.596;2024-02-15T05:15:00;11.80;99.90
19522;DHT22;9905;52.126;5.596;2024-02-15T05:17:37;11.80;99.90
19522;DHT22;9905;52.126;5.596;2024-02-15T05:20:07;11.80;99.90
19522;DHT22;9905;52.126;5.596;2024-02-15T05:22:36;11.80;99.90
19522;DHT22;9905;52.126;5.596;2024-02-15T05:25:04;11.80;99.90
19522;DHT22;9905;52.126;5.596;2024-02-15T05:27:31;11.80;99.90
19522;DHT22;9905;52.126;5.596;2024-02-15T05:29:57;11.80;99.90
19522;DHT22;9905;52.126;5.596;2024-02-15T05:32:24;11.80;99.90
19522;DHT22;9905;52.126;5.596;2024-02-15T05:34:53;11.80;99.90
19522;DHT22;9905;52.126;5.596;2024-02-15T05:37:20;11.90;99.90
19522;DHT22;9905;52.126;5.596;2024-02-15T05:39:48;11.90;99.90
19522;DHT22;9905;52.126;5.596;2024-02-15T05:42:18;11.90;99.90
19522;DHT22;9905;52.126;5.596;2024-02-15T05:44:45;11.90;99.90
19522;DHT22;9905;52.126;5.596;2024-02-15T05:47:12;11.90;99.90
19522;DHT22;9905;52.126;5.596;2024-02-15T05:49:39;11.90;99.90
19522;DHT22;9905;52.126;5.596;2024-02-15T05:52:07;11.90;99.90
19522;DHT22;9905;52.126;5.596;2024-02-15T05:54:34;11.90;99.90
19522;DHT22;9905;52.126;5.596;2024-02-15T05:57:01;11.90;99.90
19522;DHT22;9905;52.126;5.596;2024-02-15T05:59:27;11.90;99.90
19522;DHT22;9905;52.126;5.596;2024-02-15T06:01:54;12.00;99.90
19522;DHT22;9905;52.126;5.596;2024-02-15T06:04:21;12.00;99.90
19522;DHT22;9905;52.126;5.596;2024-02-15T06:06:48;11.90;99.90
19522;DHT22;9905;52.126;5.596;2024-02-15T06:09:17;11.90;99.90
19522;DHT22;9905;52.126;5.596;2024-02-15T06:11:47;11.90;99.90
19522;DHT22;9905;52.126;5.596;2024-02-15T06:14:16;11.90;99.90
19522;DHT22;9905;52.126;5.596;2024-02-15T06:16:43;11.90;99.90
19522;DHT22;9905;52.126;5.596;2024-02-15T06:19:10;11.90;99.90
19522;DHT22;9905;52.126;5.596;2024-02-15T06:21:37;11.90;99.90
19522;DHT22;9905;52.126;5.596;2024-02-15T06:24:04;12.00;99.90
19522;DHT22;9905;52.126;5.596;2024-02-15T06:26:32;11.90;99.90
19522;DHT22;9905;52.126;5.596;2024-02-15T06:29:00;11.90;99.90
19522;DHT22;9905;52.126;5.596;2024-02-15T06:31:44;11.90;99.90
19522;DHT22;9905;52.126;5.596;2024-02-15T06:34:29;12.00;99.90
19522;DHT22;9905;52.126;5.596;2024-02-15T06:37:34;11.90;99.90
19522;DHT22;9905;52.126;5.596;2024-02-15T06:40:18;11.90;99.90
19522;DHT22;9905;52.126;5.596;2024-02-15T06:42:47;11.90;99.90
19522;DHT22;9905;52.126;5.596;2024-02-15T06:45:13;12.00;99.90
19522;DHT22;9905;52.126;5.596;2024-02-15T06:47:42;12.00;99.90
19522;DHT22;9905;52.126;5.596;2024-02-15T06:50:10;12.00;99.90
19522;DHT22;9905;52.126;5.596;2024-02-15T06:52:37;12.00;99.90
19522;DHT22;9905;52.126;5.596;2024-02-15T06:55:06;12.00;99.90
19522;DHT22;9905;52.126;5.596;2024-02-15T06:57:33;11.90;99.90
19522;DHT22;9905;52.126;5.596;2024-02-15T07:00:02;12.00;99.90
19522;DHT22;9905;52.126;5.596;2024-02-15T07:02:29;12.00;99.90
19522;DHT22;9905;52.126;5.596;2024-02-15T07:04:58;12.00;99.90
19522;DHT22;9905;52.126;5.596;2024-02-15T07:07:25;12.00;99.90
19522;DHT22;9905;52.126;5.596;2024-02-15T07:09:52;12.00;99.90
19522;DHT22;9905;52.126;5.596;2024-02-15T07:12:19;12.00;99.90
19522;DHT22;9905;52.126;5.596;2024-02-15T07:14:47;12.00;99.90
19522;DHT22;9905;52.126;5.596;2024-02-15T07:17:15;12.00;99.90
19522;DHT22;9905;52.126;5.596;2024-02-15T07:19:43;12.00;99.90
19522;DHT22;9905;52.126;5.596;2024-02-15T07:22:10;12.00;99.90
19522;DHT22;9905;52.126;5.596;2024-02-15T07:24:37;12.00;99.90
19522;DHT22;9905;52.126;5.596;2024-02-15T07:27:04;12.00;99.90
19522;DHT22;9905;52.126;5.596;2024-02-15T07:29:31;12.00;99.90
19522;DHT22;9905;52.126;5.596;2024-02-15T07:32:00;12.10;99.90
19522;DHT22;9905;52.126;5.596;2024-02-15T07:34:30;12.10;99.90
19522;DHT22;9905;52.126;5.596;2024-02-15T07:36:58;12.10;99.90
19522;DHT22;9905;52.126;5.596;2024-02-15T07:39:25;12.10;99.90
19522;DHT22;9905;52.126;5.596;2024-02-15T07:41:53;12.10;99.90
19522;DHT22;9905;52.126;5.596;2024-02-15T07:44:22;12.00;99.90
19522;DHT22;9905;52.126;5.596;2024-02-15T07:46:48;12.10;99.90
19522;DHT22;9905;52.126;5.596;2024-02-15T07:49:16;12.10;99.90
19522;DHT22;9905;52.126;5.596;2024-02-15T07:51:44;12.00;99.90
19522;DHT22;9905;52.126;5.596;2024-02-15T07:54:17;12.00;99.90
19522;DHT22;9905;52.126;5.596;2024-02-15T07:56:46;12.10;99.90
19522;DHT22;9905;52.126;5.596;2024-02-15T07:59:13;12.10;99.90
19522;DHT22;9905;52.126;5.596;2024-02-15T08:01:42;12.10;99.90
19522;DHT22;9905;52.126;5.596;2024-02-15T08:04:08;12.10;99.90
19522;DHT22;9905;52.126;5.596;2024-02-15T08:06:35;12.10;99.90
19522;DHT22;9905;52.126;5.596;2024-02-15T08:09:05;12.10;99.90
19522;DHT22;9905;52.126;5.596;2024-02-15T08:11:32;12.10;99.90
19522;DHT22;9905;52.126;5.596;2024-02-15T08:13:58;12.10;99.90
19522;DHT22;9905;52.126;5.596;2024-02-15T08:16:26;12.10;99.90
19522;DHT22;9905;52.126;5.596;2024-02-15T08:18:54;12.10;99.90
19522;DHT22;9905;52.126;5.596;2024-02-15T08:21:25;12.10;99.90
19522;DHT22;9905;52.126;5.596;2024-02-15T08:23:52;12.10;99.90
19522;DHT22;9905;52.126;5.596;2024-02-15T08:26:20;12.20;99.90
19522;DHT22;9905;52.126;5.596;2024-02-15T08:28:46;12.20;99.90
19522;DHT22;9905;52.126;5.596;2024-02-15T08:31:13;12.10;99.90
19522;DHT22;9905;52.126;5.596;2024-02-15T08:33:40;12.10;99.90
19522;DHT22;9905;52.126;5.596;2024-02-15T08:36:08;12.10;99.90
19522;DHT22;9905;52.126;5.596;2024-02-15T08:38:35;12.10;99.90
19522;DHT22;9905;52.126;5.596;2024-02-15T08:41:03;12.20;99.90
19522;DHT22;9905;52.126;5.596;2024-02-15T08:43:31;12.10;99.90
19522;DHT22;9905;52.126;5.596;2024-02-15T08:45:58;12.10;99.90
19522;DHT22;9905;52.126;5.596;2024-02-15T08:48:26;12.10;99.90
19522;DHT22;9905;52.126;5.596;2024-02-15T08:50:53;12.10;99.90
19522;DHT22;9905;52.126;5.596;2024-02-15T08:53:19;12.10;99.90
19522;DHT22;9905;52.126;5.596;2024-02-15T08:55:47;12.10;99.90
19522;DHT22;9905;52.126;5.596;2024-02-15T08:58:14;12.10;99.90
19522;DHT22;9905;52.126;5.596;2024-02-15T09:00:42;12.10;99.90
19522;DHT22;9905;52.126;5.596;2024-02-15T09:03:10;12.20;99.90
19522;DHT22;9905;52.126;5.596;2024-02-15T09:05:37;12.10;99.90
19522;DHT22;9905;52.126;5.596;2024-02-15T09:08:04;12.10;99.90
19522;DHT22;9905;52.126;5.596;2024-02-15T09:10:31;12.20;99.90
19522;DHT22;9905;52.126;5.596;2024-02-15T09:12:58;12.20;99.90
19522;DHT22;9905;52.126;5.596;2024-02-15T09:15:24;12.20;99.90
19522;DHT22;9905;52.126;5.596;2024-02-15T09:17:52;12.20;99.90
19522;DHT22;9905;52.126;5.596;2024-02-15T09:20:20;12.20;99.90
19522;DHT22;9905;52.126;5.596;2024-02-15T09:22:48;12.20;99.90
19522;DHT22;9905;52.126;5.596;2024-02-15T09:25:15;12.20;99.90
19522;DHT22;9905;52.126;5.596;2024-02-15T09:27:42;12.20;99.90
19522;DHT22;9905;52.126;5.596;2024-02-15T09:30:10;12.20;99.90
19522;DHT22;9905;52.126;5.596;2024-02-15T09:32:37;12.20;99.90
19522;DHT22;9905;52.126;5.596;2024-02-15T09:35:07;12.20;99.90
19522;DHT22;9905;52.126;5.596;2024-02-15T09:37:37;12.20;99.90
19522;DHT22;9905;52.126;5.596;2024-02-15T09:40:08;12.20;99.90
19522;DHT22;9905;52.126;5.596;2024-02-15T09:42:36;12.20;99.90
19522;DHT22;9905;52.126;5.596;2024-02-15T09:45:05;12.20;99.90
19522;DHT22;9905;52.126;5.596;2024-02-15T09:47:34;12.20;99.90
19522;DHT22;9905;52.126;5.596;2024-02-15T09:50:02;12.20;99.90
19522;DHT22;9905;52.126;5.596;2024-02-15T09:52:31;12.20;99.90
19522;DHT22;9905;52.126;5.596;2024-02-15T09:55:02;12.20;99.90
19522;DHT22;9905;52.126;5.596;2024-02-15T09:57:29;12.20;99.90
19522;DHT22;9905;52.126;5.596;2024-02-15T09:59:57;12.20;99.90
19522;DHT22;9905;52.126;5.596;2024-02-15T10:02:24;12.20;99.90
19522;DHT22;9905;52.126;5.596;2024-02-15T10:04:52;12.30;99.90
19522;DHT22;9905;52.126;5.596;2024-02-15T10:07:21;12.30;99.90
19522;DHT22;9905;52.126;5.596;2024-02-15T10:09:50;12.30;99.90
19522;DHT22;9905;52.126;5.596;2024-02-15T10:12:17;12.30;99.90
19522;DHT22;9905;52.126;5.596;2024-02-15T10:14:48;12.30;99.90
19522;DHT22;9905;52.126;5.596;2024-02-15T10:17:18;12.30;99.90
19522;DHT22;9905;52.126;5.596;2024-02-15T10:20:03;12.30;99.90
19522;DHT22;9905;52.126;5.596;2024-02-15T10:22:30;12.30;99.90
19522;DHT22;9905;52.126;5.596;2024-02-15T10:25:12;12.30;99.90
19522;DHT22;9905;52.126;5.596;2024-02-15T10:27:39;12.30;99.90
19522;DHT22;9905;52.126;5.596;2024-02-15T10:30:17;12.40;99.90
19522;DHT22;9905;52.126;5.596;2024-02-15T10:32:44;12.30;99.90
19522;DHT22;9905;52.126;5.596;2024-02-15T10:35:15;12.40;99.90
19522;DHT22;9905;52.126;5.596;2024-02-15T10:37:45;12.40;99.90
19522;DHT22;9905;52.126;5.596;2024-02-15T10:40:17;12.40;99.90
19522;DHT22;9905;52.126;5.596;2024-02-15T10:42:45;12.40;99.90
19522;DHT22;9905;52.126;5.596;2024-02-15T10:45:15;12.40;99.90
19522;DHT22;9905;52.126;5.596;2024-02-15T10:47:44;12.40;99.90
19522;DHT22;9905;52.126;5.596;2024-02-15T10:50:12;12.50;99.90
19522;DHT22;9905;52.126;5.596;2024-02-15T10:52:47;12.50;99.90
19522;DHT22;9905;52.126;5.596;2024-02-15T10:55:21;12.60;99.90
19522;DHT22;9905;52.126;5.596;2024-02-15T10:57:50;12.60;99.90
19522;DHT22;9905;52.126;5.596;2024-02-15T11:00:20;12.60;99.90
19522;DHT22;9905;52.126;5.596;2024-02-15T11:03:01;12.60;99.90
19522;DHT22;9905;52.126;5.596;2024-02-15T11:05:32;12.60;99.90
19522;DHT22;9905;52.126;5.596;2024-02-15T11:08:00;12.70;99.90
19522;DHT22;9905;52.126;5.596;2024-02-15T11:10:31;12.70;99.90
19522;DHT22;9905;52.126;5.596;2024-02-15T11:12:58;12.70;99.90
19522;DHT22;9905;52.126;5.596;2024-02-15T11:15:41;12.70;99.90
19522;DHT22;9905;52.126;5.596;2024-02-15T11:18:11;12.80;99.90
19522;DHT22;9905;52.126;5.596;2024-02-15T11:20:49;12.80;99.90
19522;DHT22;9905;52.126;5.596;2024-02-15T11:23:26;12.90;99.90
19522;DHT22;9905;52.126;5.596;2024-02-15T11:25:55;12.90;99.90
19522;DHT22;9905;52.126;5.596;2024-02-15T11:28:39;13.00;99.90
19522;DHT22;9905;52.126;5.596;2024-02-15T11:31:09;12.90;99.90
19522;DHT22;9905;52.126;5.596;2024-02-15T11:33:38;13.00;99.90
19522;DHT22;9905;52.126;5.596;2024-02-15T11:36:06;13.00;99.90
19522;DHT22;9905;52.126;5.596;2024-02-15T11:38:33;13.00;99.90
19522;DHT22;9905;52.126;5.596;2024-02-15T11:41:03;13.00;99.90
19522;DHT22;9905;52.126;5.596;2024-02-15T11:44:01;13.00;99.90
19522;DHT22;9905;52.126;5.596;2024-02-15T11:46:28;13.00;99.90
19522;DHT22;9905;52.126;5.596;2024-02-15T11:48:58;13.00;99.90
19522;DHT22;9905;52.126;5.596;2024-02-15T11:51:27;13.00;99.90
19522;DHT22;9905;52.126;5.596;2024-02-15T11:54:04;13.10;99.90
19522;DHT22;9905;52.126;5.596;2024-02-15T11:56:53;13.10;99.90
19522;DHT22;9905;52.126;5.596;2024-02-15T11:59:40;13.10;99.90
19522;DHT22;9905;52.126;5.596;2024-02-15T12:02:19;13.10;99.90
19522;DHT22;9905;52.126;5.596;2024-02-15T12:05:04;13.10;99.90
19522;DHT22;9905;52.126;5.596;2024-02-15T12:07:54;13.20;99.90
19522;DHT22;9905;52.126;5.596;2024-02-15T12:10:40;13.20;99.90
19522;DHT22;9905;52.126;5.596;2024-02-15T12:13:40;13.20;99.90
19522;DHT22;9905;52.126;5.596;2024-02-15T12:16:25;13.20;99.90
19522;DHT22;9905;52.126;5.596;2024-02-15T12:19:09;13.20;99.90
19522;DHT22;9905;52.126;5.596;2024-02-15T12:21:37;13.30;99.90
19522;DHT22;9905;52.126;5.596;2024-02-15T12:24:07;13.30;99.90
19522;DHT22;9905;52.126;5.596;2024-02-15T12:26:34;13.30;99.90
19522;DHT22;9905;52.126;5.596;2024-02-15T12:29:02;13.30;99.90
19522;DHT22;9905;52.126;5.596;2024-02-15T12:31:32;13.30;99.90
19522;DHT22;9905;52.126;5.596;2024-02-15T12:34:04;13.40;99.90
19522;DHT22;9905;52.126;5.596;2024-02-15T12:36:32;13.40;99.90
19522;DHT22;9905;52.126;5.596;2024-02-15T12:39:00;13.40;99.90
19522;DHT22;9905;52.126;5.596;2024-02-15T12:41:27;13.50;99.90
19522;DHT22;9905;52.126;5.596;2024-02-15T12:43:53;13.50;99.90
19522;DHT22;9905;52.126;5.596;2024-02-15T12:46:24;13.50;99.90
19522;DHT22;9905;52.126;5.596;2024-02-15T12:49:06;13.60;99.90
19522;DHT22;9905;52.126;5.596;2024-02-15T12:51:33;13.60;99.90
19522;DHT22;9905;52.126;5.596;2024-02-15T12:54:08;13.60;99.90
19522;DHT22;9905;52.126;5.596;2024-02-15T12:56:35;13.60;99.90
19522;DHT22;9905;52.126;5.596;2024-02-15T12:59:02;13.70;99.90
19522;DHT22;9905;52.126;5.596;2024-02-15T13:01:31;13.70;99.90
19522;DHT22;9905;52.126;5.596;2024-02-15T13:03:59;13.80;99.90
19522;DHT22;9905;52.126;5.596;2024-02-15T13:06:26;13.80;99.90
19522;DHT22;9905;52.126;5.596;2024-02-15T13:08:54;13.90;99.90
19522;DHT22;9905;52.126;5.596;2024-02-15T13:11:21;13.90;99.90
19522;DHT22;9905;52.126;5.596;2024-02-15T13:13:49;14.00;99.90
19522;DHT22;9905;52.126;5.596;2024-02-15T13:16:16;14.00;99.90
19522;DHT22;9905;52.126;5.596;2024-02-15T13:18:45;14.10;99.90
19522;DHT22;9905;52.126;5.596;2024-02-15T13:21:12;14.10;99.90
19522;DHT22;9905;52.126;5.596;2024-02-15T13:23:39;14.20;99.90
19522;DHT22;9905;52.126;5.596;2024-02-15T13:26:06;14.30;99.90
19522;DHT22;9905;52.126;5.596;2024-02-15T13:28:33;14.30;99.90
19522;DHT22;9905;52.126;5.596;2024-02-15T13:31:00;14.30;99.90
19522;DHT22;9905;52.126;5.596;2024-02-15T13:33:28;14.40;99.90
19522;DHT22;9905;52.126;5.596;2024-02-15T13:35:58;14.40;99.90
19522;DHT22;9905;52.126;5.596;2024-02-15T13:38:25;14.40;99.90
19522;DHT22;9905;52.126;5.596;2024-02-15T13:40:53;14.40;99.90
19522;DHT22;9905;52.126;5.596;2024-02-15T13:43:22;14.50;99.90
19522;DHT22;9905;52.126;5.596;2024-02-15T13:45:49;14.50;99.90
19522;DHT22;9905;52.126;5.596;2024-02-15T13:48:17;14.50;99.90
19522;DHT22;9905;52.126;5.596;2024-02-15T13:50:43;14.60;99.90
19522;DHT22;9905;52.126;5.596;2024-02-15T13:53:12;14.70;99.90
19522;DHT22;9905;52.126;5.596;2024-02-15T13:55:39;14.70;99.90
19522;DHT22;9905;52.126;5.596;2024-02-15T13:58:05;14.80;99.90
19522;DHT22;9905;52.126;5.596;2024-02-15T14:00:33;14.80;99.90
19522;DHT22;9905;52.126;5.596;2024-02-15T14:03:02;14.80;99.90
19522;DHT22;9905;52.126;5.596;2024-02-15T14:05:31;14.90;99.90
19522;DHT22;9905;52.126;5.596;2024-02-15T14:07:59;14.90;99.90
19522;DHT22;9905;52.126;5.596;2024-02-15T14:10:28;14.90;99.90
19522;DHT22;9905;52.126;5.596;2024-02-15T14:12:56;14.90;99.90
19522;DHT22;9905;52.126;5.596;2024-02-15T14:15:23;15.00;99.90
19522;DHT22;9905;52.126;5.596;2024-02-15T14:17:50;14.90;99.90
19522;DHT22;9905;52.126;5.596;2024-02-15T14:20:17;14.90;99.90
19522;DHT22;9905;52.126;5.596;2024-02-15T14:22:47;15.00;99.90
19522;DHT22;9905;52.126;5.596;2024-02-15T14:25:15;15.00;99.90
19522;DHT22;9905;52.126;5.596;2024-02-15T14:27:43;15.00;99.90
19522;DHT22;9905;52.126;5.596;2024-02-15T14:30:11;15.00;99.90
19522;DHT22;9905;52.126;5.596;2024-02-15T14:32:55;15.00;99.90
19522;DHT22;9905;52.126;5.596;2024-02-15T14:35:30;15.00;99.90
19522;DHT22;9905;52.126;5.596;2024-02-15T14:38:00;15.00;99.90
19522;DHT22;9905;52.126;5.596;2024-02-15T14:40:31;14.90;99.90
19522;DHT22;9905;52.126;5.596;2024-02-15T14:43:00;14.90;99.90
19522;DHT22;9905;52.126;5.596;2024-02-15T14:45:27;14.90;99.90
19522;DHT22;9905;52.126;5.596;2024-02-15T14:47:54;14.90;99.90
19522;DHT22;9905;52.126;5.596;2024-02-15T14:50:21;14.90;99.90
19522;DHT22;9905;52.126;5.596;2024-02-15T14:52:49;14.90;99.90
19522;DHT22;9905;52.126;5.596;2024-02-15T14:55:17;14.80;99.90
19522;DHT22;9905;52.126;5.596;2024-02-15T14:57:44;14.90;99.90
19522;DHT22;9905;52.126;5.596;2024-02-15T15:00:13;14.80;99.90
19522;DHT22;9905;52.126;5.596;2024-02-15T15:02:42;14.80;99.90
19522;DHT22;9905;52.126;5.596;2024-02-15T15:05:09;14.80;99.90
19522;DHT22;9905;52.126;5.596;2024-02-15T15:07:53;14.80;99.90
19522;DHT22;9905;52.126;5.596;2024-02-15T15:10:37;14.80;99.90
19522;DHT22;9905;52.126;5.596;2024-02-15T15:13:21;14.70;99.90
19522;DHT22;9905;52.126;5.596;2024-02-15T15:15:49;14.70;99.90
19522;DHT22;9905;52.126;5.596;2024-02-15T15:18:16;14.70;99.90
19522;DHT22;9905;52.126;5.596;2024-02-15T15:20:44;14.70;99.90
19522;DHT22;9905;52.126;5.596;2024-02-15T15:23:11;14.70;99.90
19522;DHT22;9905;52.126;5.596;2024-02-15T15:25:39;14.60;99.90
19522;DHT22;9905;52.126;5.596;2024-02-15T15:28:06;14.60;99.90
19522;DHT22;9905;52.126;5.596;2024-02-15T15:30:33;14.50;99.90
19522;DHT22;9905;52.126;5.596;2024-02-15T15:33:01;14.50;99.90
19522;DHT22;9905;52.126;5.596;2024-02-15T15:35:28;14.50;99.90
19522;DHT22;9905;52.126;5.596;2024-02-15T15:37:55;14.50;99.90
19522;DHT22;9905;52.126;5.596;2024-02-15T15:40:23;14.60;99.90
19522;DHT22;9905;52.126;5.596;2024-02-15T15:42:50;14.50;99.90
19522;DHT22;9905;52.126;5.596;2024-02-15T15:45:16;14.60;99.90
19522;DHT22;9905;52.126;5.596;2024-02-15T15:47:43;14.50;99.90
19522;DHT22;9905;52.126;5.596;2024-02-15T15:50:11;14.40;99.90
19522;DHT22;9905;52.126;5.596;2024-02-15T15:52:38;14.40;99.90
19522;DHT22;9905;52.126;5.596;2024-02-15T15:55:07;14.30;99.90
19522;DHT22;9905;52.126;5.596;2024-02-15T15:57:37;14.30;99.90